sensor_id;sensor_type;location;lat;lon;timestamp;temperature;humidity
17202;DHT22;8717;53.588;10.176;2023-02-28T00:00:07;2.70;99.90
17202;DHT22;8717;53.588;10.176;2023-02-28T00:02:36;2.70;99.90
17202;DHT22;8717;53.588;10.176;2023-02-28T00:05:03;2.70;99.90
17202;DHT22;8717;53.588;10.176;2023-02-28T00:07:30;2.60;99.90
17202;DHT22;8717;53.588;10.176;2023-02-28T00:09:58;2.60;99.90
17202;DHT22;8717;53.588;10.176;2023-02-28T00:12:25;2.60;99.90
17202;DHT22;8717;53.588;10.176;2023-02-28T00:14:53;2.60;99.90
17202;DHT22;8717;53.588;10.176;2023-02-28T00:17:21;2.60;99.90
17202;DHT22;8717;53.588;10.176;2023-02-28T00:19:49;2.60;99.90
17202;DHT22;8717;53.588;10.176;2023-02-28T00:22:19;2.60;99.90
17202;DHT22;8717;53.588;10.176;2023-02-28T00:24:46;2.60;99.90
17202;DHT22;8717;53.588;10.176;2023-02-28T00:27:14;2.60;99.90
17202;DHT22;8717;53.588;10.176;2023-02-28T00:29:41;2.60;99.90
17202;DHT22;8717;53.588;10.176;2023-02-28T00:32:10;2.60;99.90
17202;DHT22;8717;53.588;10.176;2023-02-28T00:34:38;2.60;99.90
17202;DHT22;8717;53.588;10.176;2023-02-28T00:37:05;2.60;99.80
17202;DHT22;8717;53.588;10.176;2023-02-28T00:39:34;2.60;99.80
17202;DHT22;8717;53.588;10.176;2023-02-28T00:42:02;2.50;99.90
17202;DHT22;8717;53.588;10.176;2023-02-28T00:44:29;2.60;99.90
17202;DHT22;8717;53.588;10.176;2023-02-28T00:46:57;2.50;99.90
17202;DHT22;8717;53.588;10.176;2023-02-28T00:49:24;2.50;99.90
17202;DHT22;8717;53.588;10.176;2023-02-28T00:51:53;2.50;99.90
17202;DHT22;8717;53.588;10.176;2023-02-28T00:54:21;2.50;99.90
17202;DHT22;8717;53.588;10.176;2023-02-28T00:56:48;2.40;99.90
17202;DHT22;8717;53.588;10.176;2023-02-28T00:59:16;2.30;99.90
17202;DHT22;8717;53.588;10.176;2023-02-28T01:01:45;2.20;99.90
17202;DHT22;8717;53.588;10.176;2023-02-28T01:04:12;2.20;99.90
17202;DHT22;8717;53.588;10.176;2023-02-28T01:06:39;2.10;99.90
17202;DHT22;8717;53.588;10.176;2023-02-28T01:09:11;2.00;99.90
17202;DHT22;8717;53.588;10.176;2023-02-28T01:11:39;1.90;99.90
17202;DHT22;8717;53.588;10.176;2023-02-28T01:14:12;1.80;99.90
17202;DHT22;8717;53.588;10.176;2023-02-28T01:16:38;1.70;99.90
17202;DHT22;8717;53.588;10.176;2023-02-28T01:19:05;1.70;99.90
17202;DHT22;8717;53.588;10.176;2023-02-28T01:21:32;1.60;99.90
17202;DHT22;8717;53.588;10.176;2023-02-28T01:24:00;1.60;99.90
17202;DHT22;8717;53.588;10.176;2023-02-28T01:26:29;1.60;99.90
17202;DHT22;8717;53.588;10.176;2023-02-28T01:28:56;1.50;99.90
17202;DHT22;8717;53.588;10.176;2023-02-28T01:31:25;1.50;99.90
17202;DHT22;8717;53.588;10.176;2023-02-28T01:33:52;1.50;99.90
17202;DHT22;8717;53.588;10.176;2023-02-28T01:36:21;1.50;99.90
17202;DHT22;8717;53.588;10.176;2023-02-28T01:38:50;1.50;99.90
17202;DHT22;8717;53.588;10.176;2023-02-28T01:41:19;1.50;99.90
17202;DHT22;8717;53.588;10.176;2023-02-28T01:43:57;1.50;99.90
17202;DHT22;8717;53.588;10.176;2023-02-28T01:46:24;1.50;99.90
17202;DHT22;8717;53.588;10.176;2023-02-28T01:48:56;1.50;99.90
17202;DHT22;8717;53.588;10.176;2023-02-28T01:51:28;1.50;99.90
17202;DHT22;8717;53.588;10.176;2023-02-28T01:54:00;1.50;99.90
17202;DHT22;8717;53.588;10.176;2023-02-28T01:56:32;1.50;99.90
17202;DHT22;8717;53.588;10.176;2023-02-28T01:59:02;1.40;99.90
17202;DHT22;8717;53.588;10.176;2023-02-28T02:01:30;1.40;99.90
17202;DHT22;8717;53.588;10.176;2023-02-28T02:04:01;1.30;99.90
17202;DHT22;8717;53.588;10.176;2023-02-28T02:06:33;1.30;99.90
17202;DHT22;8717;53.588;10.176;2023-02-28T02:09:00;1.20;99.90
17202;DHT22;8717;53.588;10.176;2023-02-28T02:11:28;1.10;99.90
17202;DHT22;8717;53.588;10.176;2023-02-28T02:14:11;1.00;99.90
17202;DHT22;8717;53.588;10.176;2023-02-28T02:16:52;0.90;99.90
17202;DHT22;8717;53.588;10.176;2023-02-28T02:19:49;0.80;99.90
17202;DHT22;8717;53.588;10.176;2023-02-28T02:22:47;0.70;99.90
17202;DHT22;8717;53.588;10.176;2023-02-28T02:25:28;0.60;99.90
17202;DHT22;8717;53.588;10.176;2023-02-28T02:31:11;0.40;99.90
17202;DHT22;8717;53.588;10.176;2023-02-28T02:34:24;0.30;99.90
17202;DHT22;8717;53.588;10.176;2023-02-28T02:36:58;0.20;99.90
17202;DHT22;8717;53.588;10.176;2023-02-28T02:39:32;0.10;99.90
17202;DHT22;8717;53.588;10.176;2023-02-28T02:42:04;0.00;99.90
17202;DHT22;8717;53.588;10.176;2023-02-28T02:44:40;0.00;99.90
17202;DHT22;8717;53.588;10.176;2023-02-28T02:47:12;-0.10;99.90
17202;DHT22;8717;53.588;10.176;2023-02-28T02:49:45;-0.20;99.90
17202;DHT22;8717;53.588;10.176;2023-02-28T02:52:15;-0.30;99.90
17202;DHT22;8717;53.588;10.176;2023-02-28T02:54:45;-0.30;99.90
17202;DHT22;8717;53.588;10.176;2023-02-28T02:57:20;-0.40;99.90
17202;DHT22;8717;53.588;10.176;2023-02-28T02:59:48;-0.50;99.90
17202;DHT22;8717;53.588;10.176;2023-02-28T03:02:19;-0.60;99.90
17202;DHT22;8717;53.588;10.176;2023-02-28T03:04:52;-0.60;99.90
17202;DHT22;8717;53.588;10.176;2023-02-28T03:07:21;-0.70;99.90
17202;DHT22;8717;53.588;10.176;2023-02-28T03:09:52;-0.80;99.90
17202;DHT22;8717;53.588;10.176;2023-02-28T03:12:20;-0.80;99.90
17202;DHT22;8717;53.588;10.176;2023-02-28T03:14:59;-0.90;99.90
17202;DHT22;8717;53.588;10.176;2023-02-28T03:17:51;-1.00;99.90
17202;DHT22;8717;53.588;10.176;2023-02-28T03:20:32;-1.00;99.90
17202;DHT22;8717;53.588;10.176;2023-02-28T03:23:10;-1.10;99.90
17202;DHT22;8717;53.588;10.176;2023-02-28T03:25:50;-1.20;99.90
17202;DHT22;8717;53.588;10.176;2023-02-28T03:28:24;-1.20;99.90
17202;DHT22;8717;53.588;10.176;2023-02-28T03:30:57;-1.30;99.90
17202;DHT22;8717;53.588;10.176;2023-02-28T03:33:29;-1.30;99.90
17202;DHT22;8717;53.588;10.176;2023-02-28T03:36:00;-1.40;99.90
17202;DHT22;8717;53.588;10.176;2023-02-28T03:38:33;-1.40;99.90
17202;DHT22;8717;53.588;10.176;2023-02-28T03:41:05;-1.50;99.90
17202;DHT22;8717;53.588;10.176;2023-02-28T03:43:36;-1.50;99.90
17202;DHT22;8717;53.588;10.176;2023-02-28T03:46:09;-1.50;99.90
17202;DHT22;8717;53.588;10.176;2023-02-28T03:48:40;-1.60;99.90
17202;DHT22;8717;53.588;10.176;2023-02-28T03:51:11;-1.60;99.90
17202;DHT22;8717;53.588;10.176;2023-02-28T03:53:43;-1.60;99.90
17202;DHT22;8717;53.588;10.176;2023-02-28T03:56:14;-1.70;99.90
17202;DHT22;8717;53.588;10.176;2023-02-28T03:58:47;-1.70;99.90
17202;DHT22;8717;53.588;10.176;2023-02-28T04:01:18;-1.70;99.90
17202;DHT22;8717;53.588;10.176;2023-02-28T04:03:47;-1.80;99.90
17202;DHT22;8717;53.588;10.176;2023-02-28T04:06:18;-1.80;99.90
17202;DHT22;8717;53.588;10.176;2023-02-28T04:08:45;-1.80;99.90
17202;DHT22;8717;53.588;10.176;2023-02-28T04:11:20;-1.90;99.90
17202;DHT22;8717;53.588;10.176;2023-02-28T04:13:47;-1.90;99.90
17202;DHT22;8717;53.588;10.176;2023-02-28T04:16:15;-2.00;99.90
17202;DHT22;8717;53.588;10.176;2023-02-28T04:18:42;-2.00;99.90
17202;DHT22;8717;53.588;10.176;2023-02-28T04:21:10;-2.00;99.90
17202;DHT22;8717;53.588;10.176;2023-02-28T04:23:39;-2.10;99.90
17202;DHT22;8717;53.588;10.176;2023-02-28T04:26:06;-2.10;99.90
17202;DHT22;8717;53.588;10.176;2023-02-28T04:28:33;-2.10;99.90
17202;DHT22;8717;53.588;10.176;2023-02-28T04:31:02;-2.20;99.90
17202;DHT22;8717;53.588;10.176;2023-02-28T04:33:30;-2.20;99.90
17202;DHT22;8717;53.588;10.176;2023-02-28T04:36:01;-2.30;99.90
17202;DHT22;8717;53.588;10.176;2023-02-28T04:38:28;-2.30;99.90
17202;DHT22;8717;53.588;10.176;2023-02-28T04:40:58;-2.30;99.90
17202;DHT22;8717;53.588;10.176;2023-02-28T04:43:26;-2.40;99.90
17202;DHT22;8717;53.588;10.176;2023-02-28T04:45:53;-2.40;99.90
17202;DHT22;8717;53.588;10.176;2023-02-28T04:48:22;-2.40;99.90
17202;DHT22;8717;53.588;10.176;2023-02-28T04:50:49;-2.40;99.90
17202;DHT22;8717;53.588;10.176;2023-02-28T04:53:15;-2.50;99.90
17202;DHT22;8717;53.588;10.176;2023-02-28T04:55:42;-2.50;99.90
17202;DHT22;8717;53.588;10.176;2023-02-28T04:58:11;-2.50;99.90
17202;DHT22;8717;53.588;10.176;2023-02-28T05:00:38;-2.50;99.90
17202;DHT22;8717;53.588;10.176;2023-02-28T05:03:05;-2.50;99.90
17202;DHT22;8717;53.588;10.176;2023-02-28T05:05:32;-2.50;99.90
17202;DHT22;8717;53.588;10.176;2023-02-28T05:07:59;-2.50;99.90
17202;DHT22;8717;53.588;10.176;2023-02-28T05:10:26;-2.50;99.90
17202;DHT22;8717;53.588;10.176;2023-02-28T05:12:53;-2.60;99.90
17202;DHT22;8717;53.588;10.176;2023-02-28T05:15:21;-2.60;99.90
17202;DHT22;8717;53.588;10.176;2023-02-28T05:17:48;-2.60;99.90
17202;DHT22;8717;53.588;10.176;2023-02-28T05:20:14;-2.70;99.90
17202;DHT22;8717;53.588;10.176;2023-02-28T05:22:42;-2.70;99.90
17202;DHT22;8717;53.588;10.176;2023-02-28T05:25:10;-2.70;99.90
17202;DHT22;8717;53.588;10.176;2023-02-28T05:27:38;-2.80;99.90
17202;DHT22;8717;53.588;10.176;2023-02-28T05:30:06;-2.80;99.90
17202;DHT22;8717;53.588;10.176;2023-02-28T05:32:37;-2.80;99.90
17202;DHT22;8717;53.588;10.176;2023-02-28T05:35:04;-2.80;99.90
17202;DHT22;8717;53.588;10.176;2023-02-28T05:37:31;-2.80;99.90
17202;DHT22;8717;53.588;10.176;2023-02-28T05:39:58;-2.90;99.90
17202;DHT22;8717;53.588;10.176;2023-02-28T05:42:25;-2.90;99.90
17202;DHT22;8717;53.588;10.176;2023-02-28T05:44:52;-2.90;99.90
17202;DHT22;8717;53.588;10.176;2023-02-28T05:47:19;-2.90;99.90
17202;DHT22;8717;53.588;10.176;2023-02-28T05:49:47;-3.00;99.90
17202;DHT22;8717;53.588;10.176;2023-02-28T05:52:14;-3.00;99.90
17202;DHT22;8717;53.588;10.176;2023-02-28T05:54:41;-3.00;99.90
17202;DHT22;8717;53.588;10.176;2023-02-28T05:57:08;-3.00;99.90
17202;DHT22;8717;53.588;10.176;2023-02-28T05:59:35;-3.00;99.90
17202;DHT22;8717;53.588;10.176;2023-02-28T06:02:05;-3.00;99.90
17202;DHT22;8717;53.588;10.176;2023-02-28T06:04:32;-3.10;99.90
17202;DHT22;8717;53.588;10.176;2023-02-28T06:07:00;-3.10;99.90
17202;DHT22;8717;53.588;10.176;2023-02-28T06:09:27;-3.10;99.90
17202;DHT22;8717;53.588;10.176;2023-02-28T06:11:54;-3.10;99.90
17202;DHT22;8717;53.588;10.176;2023-02-28T06:14:21;-3.10;99.90
17202;DHT22;8717;53.588;10.176;2023-02-28T06:16:47;-3.10;99.90
17202;DHT22;8717;53.588;10.176;2023-02-28T06:19:14;-3.20;99.90
17202;DHT22;8717;53.588;10.176;2023-02-28T06:21:41;-3.20;99.90
17202;DHT22;8717;53.588;10.176;2023-02-28T06:24:10;-3.20;99.90
17202;DHT22;8717;53.588;10.176;2023-02-28T06:26:37;-3.20;99.90
17202;DHT22;8717;53.588;10.176;2023-02-28T06:29:04;-3.20;99.90
17202;DHT22;8717;53.588;10.176;2023-02-28T06:31:31;-3.20;99.90
17202;DHT22;8717;53.588;10.176;2023-02-28T06:33:58;-3.20;99.90
17202;DHT22;8717;53.588;10.176;2023-02-28T06:36:25;-3.20;99.90
17202;DHT22;8717;53.588;10.176;2023-02-28T06:38:51;-3.10;99.90
17202;DHT22;8717;53.588;10.176;2023-02-28T06:41:23;-3.10;99.90
17202;DHT22;8717;53.588;10.176;2023-02-28T06:43:51;-3.10;99.90
17202;DHT22;8717;53.588;10.176;2023-02-28T06:46:18;-3.00;99.90
17202;DHT22;8717;53.588;10.176;2023-02-28T06:48:45;-3.00;99.90
17202;DHT22;8717;53.588;10.176;2023-02-28T06:51:14;-2.90;99.90
17202;DHT22;8717;53.588;10.176;2023-02-28T06:53:42;-2.80;99.90
17202;DHT22;8717;53.588;10.176;2023-02-28T06:56:10;-2.90;99.90
17202;DHT22;8717;53.588;10.176;2023-02-28T06:58:39;-2.80;99.90
17202;DHT22;8717;53.588;10.176;2023-02-28T07:01:06;-2.70;99.90
17202;DHT22;8717;53.588;10.176;2023-02-28T07:03:35;-2.60;99.90
17202;DHT22;8717;53.588;10.176;2023-02-28T07:06:02;-2.50;99.90
17202;DHT22;8717;53.588;10.176;2023-02-28T07:08:29;-2.40;99.90
17202;DHT22;8717;53.588;10.176;2023-02-28T07:10:57;-2.30;99.90
17202;DHT22;8717;53.588;10.176;2023-02-28T07:13:24;-2.10;99.90
17202;DHT22;8717;53.588;10.176;2023-02-28T07:15:56;-1.90;99.90
17202;DHT22;8717;53.588;10.176;2023-02-28T07:18:24;-1.80;99.90
17202;DHT22;8717;53.588;10.176;2023-02-28T07:20:50;-1.70;99.90
17202;DHT22;8717;53.588;10.176;2023-02-28T07:23:17;-1.60;99.90
17202;DHT22;8717;53.588;10.176;2023-02-28T07:25:44;-1.40;99.90
17202;DHT22;8717;53.588;10.176;2023-02-28T07:28:11;-1.30;99.90
17202;DHT22;8717;53.588;10.176;2023-02-28T07:30:38;-1.20;99.90
17202;DHT22;8717;53.588;10.176;2023-02-28T07:33:07;-1.00;99.90
17202;DHT22;8717;53.588;10.176;2023-02-28T07:35:34;-0.90;99.90
17202;DHT22;8717;53.588;10.176;2023-02-28T07:38:01;-0.70;99.90
17202;DHT22;8717;53.588;10.176;2023-02-28T07:40:28;-0.50;99.90
17202;DHT22;8717;53.588;10.176;2023-02-28T07:42:55;-0.20;99.90
17202;DHT22;8717;53.588;10.176;2023-02-28T07:45:21;0.10;99.90
17202;DHT22;8717;53.588;10.176;2023-02-28T07:47:48;0.30;99.90
17202;DHT22;8717;53.588;10.176;2023-02-28T07:50:16;0.60;99.90
17202;DHT22;8717;53.588;10.176;2023-02-28T07:52:43;0.70;99.90
17202;DHT22;8717;53.588;10.176;2023-02-28T07:55:10;0.80;99.90
17202;DHT22;8717;53.588;10.176;2023-02-28T07:57:37;0.90;99.90
17202;DHT22;8717;53.588;10.176;2023-02-28T08:00:05;1.00;99.90
17202;DHT22;8717;53.588;10.176;2023-02-28T08:02:37;1.10;99.90
17202;DHT22;8717;53.588;10.176;2023-02-28T08:05:04;1.40;99.90
17202;DHT22;8717;53.588;10.176;2023-02-28T08:07:32;1.40;99.90
17202;DHT22;8717;53.588;10.176;2023-02-28T08:09:59;1.50;99.90
17202;DHT22;8717;53.588;10.176;2023-02-28T08:12:26;1.60;99.90
17202;DHT22;8717;53.588;10.176;2023-02-28T08:14:53;1.70;99.90
17202;DHT22;8717;53.588;10.176;2023-02-28T08:17:19;1.80;99.90
17202;DHT22;8717;53.588;10.176;2023-02-28T08:19:46;1.90;99.90
17202;DHT22;8717;53.588;10.176;2023-02-28T08:22:13;2.00;99.90
17202;DHT22;8717;53.588;10.176;2023-02-28T08:24:42;2.10;99.90
17202;DHT22;8717;53.588;10.176;2023-02-28T08:27:09;2.20;99.90
17202;DHT22;8717;53.588;10.176;2023-02-28T08:29:36;2.20;99.90
17202;DHT22;8717;53.588;10.176;2023-02-28T08:32:03;2.30;99.90
17202;DHT22;8717;53.588;10.176;2023-02-28T08:34:30;2.50;99.90
17202;DHT22;8717;53.588;10.176;2023-02-28T08:36:57;2.70;99.90
17202;DHT22;8717;53.588;10.176;2023-02-28T08:39:24;2.80;99.90
17202;DHT22;8717;53.588;10.176;2023-02-28T08:41:52;2.90;99.90
17202;DHT22;8717;53.588;10.176;2023-02-28T08:44:19;3.10;99.90
17202;DHT22;8717;53.588;10.176;2023-02-28T08:46:45;3.20;99.90
17202;DHT22;8717;53.588;10.176;2023-02-28T08:49:12;3.40;99.90
17202;DHT22;8717;53.588;10.176;2023-02-28T08:51:39;3.70;99.90
17202;DHT22;8717;53.588;10.176;2023-02-28T08:54:06;4.00;99.90
17202;DHT22;8717;53.588;10.176;2023-02-28T08:56:32;4.60;99.90
17202;DHT22;8717;53.588;10.176;2023-02-28T08:59:00;5.20;99.90
17202;DHT22;8717;53.588;10.176;2023-02-28T09:01:28;6.00;99.90
17202;DHT22;8717;53.588;10.176;2023-02-28T09:03:57;6.70;99.90
17202;DHT22;8717;53.588;10.176;2023-02-28T09:06:26;7.60;99.90
17202;DHT22;8717;53.588;10.176;2023-02-28T09:08:53;8.40;99.90
17202;DHT22;8717;53.588;10.176;2023-02-28T09:11:23;9.10;99.90
17202;DHT22;8717;53.588;10.176;2023-02-28T09:13:50;9.90;99.90
17202;DHT22;8717;53.588;10.176;2023-02-28T09:16:18;10.50;99.00
17202;DHT22;8717;53.588;10.176;2023-02-28T09:18:45;11.10;97.80
17202;DHT22;8717;53.588;10.176;2023-02-28T09:21:13;11.60;97.20
17202;DHT22;8717;53.588;10.176;2023-02-28T09:23:41;12.10;95.90
17202;DHT22;8717;53.588;10.176;2023-02-28T09:26:15;12.60;95.50
17202;DHT22;8717;53.588;10.176;2023-02-28T09:28:42;13.00;94.10
17202;DHT22;8717;53.588;10.176;2023-02-28T09:31:12;13.30;94.10
17202;DHT22;8717;53.588;10.176;2023-02-28T09:33:40;13.70;92.50
17202;DHT22;8717;53.588;10.176;2023-02-28T09:36:07;14.00;91.70
17202;DHT22;8717;53.588;10.176;2023-02-28T09:38:34;14.40;91.60
17202;DHT22;8717;53.588;10.176;2023-02-28T09:41:04;14.50;90.90
17202;DHT22;8717;53.588;10.176;2023-02-28T09:43:38;14.80;88.20
17202;DHT22;8717;53.588;10.176;2023-02-28T09:46:16;15.00;87.00
17202;DHT22;8717;53.588;10.176;2023-02-28T09:48:47;15.20;85.20
17202;DHT22;8717;53.588;10.176;2023-02-28T09:51:27;15.50;85.00
17202;DHT22;8717;53.588;10.176;2023-02-28T09:53:54;15.70;78.40
17202;DHT22;8717;53.588;10.176;2023-02-28T09:56:25;15.80;76.60
17202;DHT22;8717;53.588;10.176;2023-02-28T09:58:57;15.80;76.90
17202;DHT22;8717;53.588;10.176;2023-02-28T10:01:30;15.80;71.50
17202;DHT22;8717;53.588;10.176;2023-02-28T10:04:04;15.70;71.70
17202;DHT22;8717;53.588;10.176;2023-02-28T10:06:38;15.70;73.80
17202;DHT22;8717;53.588;10.176;2023-02-28T10:09:11;15.70;68.40
17202;DHT22;8717;53.588;10.176;2023-02-28T10:11:40;15.50;68.70
17202;DHT22;8717;53.588;10.176;2023-02-28T10:14:12;15.40;71.60
17202;DHT22;8717;53.588;10.176;2023-02-28T10:16:43;15.40;70.30
17202;DHT22;8717;53.588;10.176;2023-02-28T10:19:19;15.30;66.50
17202;DHT22;8717;53.588;10.176;2023-02-28T10:21:51;15.20;67.80
17202;DHT22;8717;53.588;10.176;2023-02-28T10:24:25;15.20;70.20
17202;DHT22;8717;53.588;10.176;2023-02-28T10:26:58;15.20;68.90
17202;DHT22;8717;53.588;10.176;2023-02-28T10:29:26;15.20;70.00
17202;DHT22;8717;53.588;10.176;2023-02-28T10:31:53;15.30;71.30
17202;DHT22;8717;53.588;10.176;2023-02-28T10:34:21;15.40;67.90
17202;DHT22;8717;53.588;10.176;2023-02-28T10:36:49;15.40;65.30
17202;DHT22;8717;53.588;10.176;2023-02-28T10:39:43;15.50;68.10
17202;DHT22;8717;53.588;10.176;2023-02-28T10:42:20;15.40;66.90
17202;DHT22;8717;53.588;10.176;2023-02-28T10:44:47;15.50;67.10
17202;DHT22;8717;53.588;10.176;2023-02-28T10:47:16;15.50;69.30
17202;DHT22;8717;53.588;10.176;2023-02-28T10:49:49;15.60;67.30
17202;DHT22;8717;53.588;10.176;2023-02-28T10:52:33;15.60;66.00
17202;DHT22;8717;53.588;10.176;2023-02-28T10:55:24;15.60;66.60
17202;DHT22;8717;53.588;10.176;2023-02-28T10:57:52;15.60;63.70
17202;DHT22;8717;53.588;10.176;2023-02-28T11:00:22;15.60;65.90
17202;DHT22;8717;53.588;10.176;2023-02-28T11:02:52;15.50;65.20
17202;DHT22;8717;53.588;10.176;2023-02-28T11:05:26;15.40;62.50
17202;DHT22;8717;53.588;10.176;2023-02-28T11:07:53;15.30;60.40
17202;DHT22;8717;53.588;10.176;2023-02-28T11:10:22;15.20;61.90
17202;DHT22;8717;53.588;10.176;2023-02-28T11:12:55;15.00;61.20
17202;DHT22;8717;53.588;10.176;2023-02-28T11:15:24;14.90;63.00
17202;DHT22;8717;53.588;10.176;2023-02-28T11:17:55;14.80;60.20
17202;DHT22;8717;53.588;10.176;2023-02-28T11:20:26;14.70;61.00
17202;DHT22;8717;53.588;10.176;2023-02-28T11:22:55;14.60;60.10
17202;DHT22;8717;53.588;10.176;2023-02-28T11:25:25;14.50;61.30
17202;DHT22;8717;53.588;10.176;2023-02-28T11:27:54;14.40;61.50
17202;DHT22;8717;53.588;10.176;2023-02-28T11:30:42;14.40;63.80
17202;DHT22;8717;53.588;10.176;2023-02-28T11:33:37;14.30;61.90
17202;DHT22;8717;53.588;10.176;2023-02-28T11:36:11;14.30;58.40
17202;DHT22;8717;53.588;10.176;2023-02-28T11:38:38;14.30;63.00
17202;DHT22;8717;53.588;10.176;2023-02-28T11:41:16;14.20;62.60
17202;DHT22;8717;53.588;10.176;2023-02-28T11:44:04;14.20;57.60
17202;DHT22;8717;53.588;10.176;2023-02-28T11:46:37;14.00;56.50
17202;DHT22;8717;53.588;10.176;2023-02-28T11:49:20;13.90;58.70
17202;DHT22;8717;53.588;10.176;2023-02-28T11:51:54;13.70;59.30
17202;DHT22;8717;53.588;10.176;2023-02-28T11:54:50;13.60;60.00
17202;DHT22;8717;53.588;10.176;2023-02-28T11:57:31;13.60;60.00
17202;DHT22;8717;53.588;10.176;2023-02-28T12:00:03;13.50;59.70
17202;DHT22;8717;53.588;10.176;2023-02-28T12:02:50;13.50;60.30
17202;DHT22;8717;53.588;10.176;2023-02-28T12:05:30;13.50;60.60
17202;DHT22;8717;53.588;10.176;2023-02-28T12:08:06;13.40;59.30
17202;DHT22;8717;53.588;10.176;2023-02-28T12:10:37;13.40;55.70
17202;DHT22;8717;53.588;10.176;2023-02-28T12:13:16;13.30;58.20
17202;DHT22;8717;53.588;10.176;2023-02-28T12:16:30;13.20;57.50
17202;DHT22;8717;53.588;10.176;2023-02-28T12:19:12;13.10;58.20
17202;DHT22;8717;53.588;10.176;2023-02-28T12:22:00;13.10;59.00
17202;DHT22;8717;53.588;10.176;2023-02-28T12:24:49;13.00;57.40
17202;DHT22;8717;53.588;10.176;2023-02-28T12:27:21;12.80;57.70
17202;DHT22;8717;53.588;10.176;2023-02-28T12:29:51;12.80;60.00
17202;DHT22;8717;53.588;10.176;2023-02-28T12:32:23;12.70;58.50
17202;DHT22;8717;53.588;10.176;2023-02-28T12:34:56;12.60;58.60
17202;DHT22;8717;53.588;10.176;2023-02-28T12:37:27;12.50;57.90
17202;DHT22;8717;53.588;10.176;2023-02-28T12:40:01;12.40;58.20
17202;DHT22;8717;53.588;10.176;2023-02-28T12:42:34;12.30;57.10
17202;DHT22;8717;53.588;10.176;2023-02-28T12:45:09;12.20;57.80
17202;DHT22;8717;53.588;10.176;2023-02-28T12:47:38;12.20;55.40
17202;DHT22;8717;53.588;10.176;2023-02-28T12:50:08;12.20;58.70
17202;DHT22;8717;53.588;10.176;2023-02-28T12:52:41;12.20;58.20
17202;DHT22;8717;53.588;10.176;2023-02-28T12:55:14;12.20;57.30
17202;DHT22;8717;53.588;10.176;2023-02-28T12:57:49;12.10;56.00
17202;DHT22;8717;53.588;10.176;2023-02-28T13:00:20;12.00;55.20
17202;DHT22;8717;53.588;10.176;2023-02-28T13:03:10;11.90;56.40
17202;DHT22;8717;53.588;10.176;2023-02-28T13:05:55;11.80;56.40
17202;DHT22;8717;53.588;10.176;2023-02-28T13:08:51;11.70;57.80
17202;DHT22;8717;53.588;10.176;2023-02-28T13:11:29;11.60;57.00
17202;DHT22;8717;53.588;10.176;2023-02-28T13:13:58;11.60;55.30
17202;DHT22;8717;53.588;10.176;2023-02-28T13:16:26;11.50;56.50
17202;DHT22;8717;53.588;10.176;2023-02-28T13:19:08;11.40;56.90
17202;DHT22;8717;53.588;10.176;2023-02-28T13:21:42;11.40;55.50
17202;DHT22;8717;53.588;10.176;2023-02-28T13:24:11;11.30;53.50
17202;DHT22;8717;53.588;10.176;2023-02-28T13:27:22;11.30;55.70
17202;DHT22;8717;53.588;10.176;2023-02-28T13:29:51;11.20;55.80
17202;DHT22;8717;53.588;10.176;2023-02-28T13:32:35;11.20;56.30
17202;DHT22;8717;53.588;10.176;2023-02-28T13:38:13;11.10;57.40
17202;DHT22;8717;53.588;10.176;2023-02-28T13:40:41;11.10;57.80
17202;DHT22;8717;53.588;10.176;2023-02-28T13:43:09;11.10;56.60
17202;DHT22;8717;53.588;10.176;2023-02-28T13:45:36;11.00;54.40
17202;DHT22;8717;53.588;10.176;2023-02-28T13:48:16;10.90;56.00
17202;DHT22;8717;53.588;10.176;2023-02-28T13:50:44;10.80;55.60
17202;DHT22;8717;53.588;10.176;2023-02-28T13:53:43;10.70;57.70
17202;DHT22;8717;53.588;10.176;2023-02-28T13:56:27;10.60;58.10
17202;DHT22;8717;53.588;10.176;2023-02-28T13:59:04;10.50;58.20
17202;DHT22;8717;53.588;10.176;2023-02-28T14:01:45;10.50;57.10
17202;DHT22;8717;53.588;10.176;2023-02-28T14:04:46;10.40;57.30
17202;DHT22;8717;53.588;10.176;2023-02-28T14:07:21;10.30;58.70
17202;DHT22;8717;53.588;10.176;2023-02-28T14:09:56;10.30;54.60
17202;DHT22;8717;53.588;10.176;2023-02-28T14:12:59;10.20;57.40
17202;DHT22;8717;53.588;10.176;2023-02-28T14:15:55;10.10;57.90
17202;DHT22;8717;53.588;10.176;2023-02-28T14:18:29;9.90;56.50
17202;DHT22;8717;53.588;10.176;2023-02-28T14:21:12;9.80;55.70
17202;DHT22;8717;53.588;10.176;2023-02-28T14:24:03;9.70;58.20
17202;DHT22;8717;53.588;10.176;2023-02-28T14:26:55;9.60;58.40
17202;DHT22;8717;53.588;10.176;2023-02-28T14:32:33;9.50;60.30
17202;DHT22;8717;53.588;10.176;2023-02-28T14:35:13;9.50;60.70
17202;DHT22;8717;53.588;10.176;2023-02-28T14:37:43;9.50;60.60
17202;DHT22;8717;53.588;10.176;2023-02-28T14:40:15;9.40;60.20
17202;DHT22;8717;53.588;10.176;2023-02-28T14:42:47;9.40;60.10
17202;DHT22;8717;53.588;10.176;2023-02-28T14:45:18;9.40;61.00
17202;DHT22;8717;53.588;10.176;2023-02-28T14:47:47;9.40;61.80
17202;DHT22;8717;53.588;10.176;2023-02-28T14:50:19;9.30;60.10
17202;DHT22;8717;53.588;10.176;2023-02-28T14:52:46;9.30;60.70
17202;DHT22;8717;53.588;10.176;2023-02-28T14:55:17;9.20;60.00
17202;DHT22;8717;53.588;10.176;2023-02-28T14:57:52;9.10;60.50
17202;DHT22;8717;53.588;10.176;2023-02-28T15:00:23;9.10;61.10
17202;DHT22;8717;53.588;10.176;2023-02-28T15:02:52;9.10;62.40
17202;DHT22;8717;53.588;10.176;2023-02-28T15:05:24;9.00;60.60
17202;DHT22;8717;53.588;10.176;2023-02-28T15:08:06;9.00;61.40
17202;DHT22;8717;53.588;10.176;2023-02-28T15:10:34;8.90;62.50
17202;DHT22;8717;53.588;10.176;2023-02-28T15:13:02;8.90;63.10
17202;DHT22;8717;53.588;10.176;2023-02-28T15:15:40;8.80;62.30
17202;DHT22;8717;53.588;10.176;2023-02-28T15:18:15;8.80;61.50
17202;DHT22;8717;53.588;10.176;2023-02-28T15:20:43;8.70;62.70
17202;DHT22;8717;53.588;10.176;2023-02-28T15:23:11;8.60;62.60
17202;DHT22;8717;53.588;10.176;2023-02-28T15:25:39;8.50;61.60
17202;DHT22;8717;53.588;10.176;2023-02-28T15:28:14;8.40;62.20
17202;DHT22;8717;53.588;10.176;2023-02-28T15:30:52;8.30;63.10
17202;DHT22;8717;53.588;10.176;2023-02-28T15:33:21;8.30;62.60
17202;DHT22;8717;53.588;10.176;2023-02-28T15:35:49;8.20;61.60
17202;DHT22;8717;53.588;10.176;2023-02-28T15:38:21;8.10;62.20
17202;DHT22;8717;53.588;10.176;2023-02-28T15:40:51;8.10;63.30
17202;DHT22;8717;53.588;10.176;2023-02-28T15:43:27;8.00;63.40
17202;DHT22;8717;53.588;10.176;2023-02-28T15:45:57;7.90;63.40
17202;DHT22;8717;53.588;10.176;2023-02-28T15:48:28;7.80;64.10
17202;DHT22;8717;53.588;10.176;2023-02-28T15:50:57;7.70;62.50
17202;DHT22;8717;53.588;10.176;2023-02-28T15:53:28;7.60;63.00
17202;DHT22;8717;53.588;10.176;2023-02-28T15:55:59;7.60;63.00
17202;DHT22;8717;53.588;10.176;2023-02-28T15:58:26;7.50;64.00
17202;DHT22;8717;53.588;10.176;2023-02-28T16:01:06;7.40;64.30
17202;DHT22;8717;53.588;10.176;2023-02-28T16:03:39;7.40;63.90
17202;DHT22;8717;53.588;10.176;2023-02-28T16:06:26;7.30;64.60
17202;DHT22;8717;53.588;10.176;2023-02-28T16:08:57;7.20;63.90
17202;DHT22;8717;53.588;10.176;2023-02-28T16:11:23;7.20;64.80
17202;DHT22;8717;53.588;10.176;2023-02-28T16:13:51;7.10;64.90